sensor_id;sensor_type;location;lat;lon;timestamp;P1;durP1;ratioP1;P2;durP2;ratioP2
1410;SDS011;700;51.906;8.404;2022-09-02T00:01:49;2.27;;;0.90;;
1410;SDS011;700;51.906;8.404;2022-09-02T00:06:51;5.60;;;1.20;;
1410;SDS011;700;51.906;8.404;2022-09-02T00:11:53;2.47;;;0.87;;
1410;SDS011;700;51.906;8.404;2022-09-02T00:16:55;2.87;;;1.10;;
1410;SDS011;700;51.906;8.404;2022-09-02T00:21:59;2.10;;;0.90;;
1410;SDS011;700;51.906;8.404;2022-09-02T00:27:03;3.00;;;1.13;;
1410;SDS011;700;51.906;8.404;2022-09-02T00:32:04;2.90;;;1.00;;
1410;SDS011;700;51.906;8.404;2022-09-02T00:37:05;2.40;;;0.90;;
1410;SDS011;700;51.906;8.404;2022-09-02T00:42:06;4.47;;;1.10;;
1410;SDS011;700;51.906;8.404;2022-09-02T00:47:10;4.17;;;0.90;;
1410;SDS011;700;51.906;8.404;2022-09-02T00:57:35;2.00;;;1.00;;
1410;SDS011;700;51.906;8.404;2022-09-02T01:02:39;2.70;;;1.10;;
1410;SDS011;700;51.906;8.404;2022-09-02T01:07:46;3.23;;;0.90;;
1410;SDS011;700;51.906;8.404;2022-09-02T01:12:46;3.03;;;1.00;;
1410;SDS011;700;51.906;8.404;2022-09-02T01:17:48;2.30;;;1.00;;
1410;SDS011;700;51.906;8.404;2022-09-02T01:22:52;2.40;;;0.97;;
1410;SDS011;700;51.906;8.404;2022-09-02T01:27:58;2.53;;;1.00;;
1410;SDS011;700;51.906;8.404;2022-09-02T01:33:00;2.10;;;1.00;;
1410;SDS011;700;51.906;8.404;2022-09-02T01:38:03;4.27;;;1.00;;
1410;SDS011;700;51.906;8.404;2022-09-02T01:43:24;1.83;;;0.90;;
1410;SDS011;700;51.906;8.404;2022-09-02T01:48:33;1.90;;;0.93;;
1410;SDS011;700;51.906;8.404;2022-09-02T01:53:33;1.93;;;0.90;;
1410;SDS011;700;51.906;8.404;2022-09-02T01:58:34;2.30;;;1.03;;
1410;SDS011;700;51.906;8.404;2022-09-02T02:03:35;2.50;;;1.00;;
1410;SDS011;700;51.906;8.404;2022-09-02T02:08:39;2.30;;;1.20;;
1410;SDS011;700;51.906;8.404;2022-09-02T02:13:42;2.87;;;1.20;;
1410;SDS011;700;51.906;8.404;2022-09-02T02:18:45;2.40;;;1.67;;
1410;SDS011;700;51.906;8.404;2022-09-02T02:23:48;4.63;;;1.13;;
1410;SDS011;700;51.906;8.404;2022-09-02T02:28:49;3.10;;;1.20;;
1410;SDS011;700;51.906;8.404;2022-09-02T02:33:52;4.33;;;1.23;;
1410;SDS011;700;51.906;8.404;2022-09-02T02:38:52;3.70;;;1.20;;
1410;SDS011;700;51.906;8.404;2022-09-02T02:43:53;2.30;;;1.20;;
1410;SDS011;700;51.906;8.404;2022-09-02T02:48:54;2.87;;;1.37;;
1410;SDS011;700;51.906;8.404;2022-09-02T02:53:58;4.63;;;1.10;;
1410;SDS011;700;51.906;8.404;2022-09-02T02:58:59;3.40;;;1.40;;
1410;SDS011;700;51.906;8.404;2022-09-02T03:04:02;3.60;;;1.20;;
1410;SDS011;700;51.906;8.404;2022-09-02T03:09:04;3.07;;;1.10;;
1410;SDS011;700;51.906;8.404;2022-09-02T03:14:05;2.47;;;1.20;;
1410;SDS011;700;51.906;8.404;2022-09-02T03:19:09;2.07;;;1.23;;
1410;SDS011;700;51.906;8.404;2022-09-02T03:24:13;4.27;;;1.60;;
1410;SDS011;700;51.906;8.404;2022-09-02T03:29:16;3.90;;;2.20;;
1410;SDS011;700;51.906;8.404;2022-09-02T03:34:19;3.30;;;1.50;;
1410;SDS011;700;51.906;8.404;2022-09-02T03:39:20;2.67;;;1.37;;
1410;SDS011;700;51.906;8.404;2022-09-02T03:44:23;4.50;;;1.60;;
1410;SDS011;700;51.906;8.404;2022-09-02T03:49:26;9.90;;;1.87;;
1410;SDS011;700;51.906;8.404;2022-09-02T03:54:27;4.67;;;1.70;;
1410;SDS011;700;51.906;8.404;2022-09-02T03:59:28;5.10;;;1.63;;
1410;SDS011;700;51.906;8.404;2022-09-02T04:04:28;3.80;;;1.90;;
1410;SDS011;700;51.906;8.404;2022-09-02T04:09:29;4.10;;;1.70;;
1410;SDS011;700;51.906;8.404;2022-09-02T04:14:30;2.93;;;1.60;;
1410;SDS011;700;51.906;8.404;2022-09-02T04:25:29;3.00;;;1.67;;
1410;SDS011;700;51.906;8.404;2022-09-02T04:30:33;5.70;;;1.57;;
1410;SDS011;700;51.906;8.404;2022-09-02T04:35:34;3.93;;;1.93;;
1410;SDS011;700;51.906;8.404;2022-09-02T04:40:39;4.17;;;2.00;;
1410;SDS011;700;51.906;8.404;2022-09-02T04:45:44;3.23;;;1.93;;
1410;SDS011;700;51.906;8.404;2022-09-02T04:50:48;4.00;;;2.23;;
1410;SDS011;700;51.906;8.404;2022-09-02T04:55:49;2.90;;;1.83;;
1410;SDS011;700;51.906;8.404;2022-09-02T05:00:49;5.30;;;2.50;;
1410;SDS011;700;51.906;8.404;2022-09-02T05:05:57;4.53;;;2.57;;
1410;SDS011;700;51.906;8.404;2022-09-02T05:11:07;4.50;;;2.10;;
1410;SDS011;700;51.906;8.404;2022-09-02T05:16:16;3.63;;;2.30;;
1410;SDS011;700;51.906;8.404;2022-09-02T05:21:19;4.70;;;2.50;;
1410;SDS011;700;51.906;8.404;2022-09-02T05:26:20;6.35;;;2.25;;
1410;SDS011;700;51.906;8.404;2022-09-02T05:31:23;3.20;;;2.13;;
1410;SDS011;700;51.906;8.404;2022-09-02T05:36:27;4.90;;;2.00;;
1410;SDS011;700;51.906;8.404;2022-09-02T05:41:33;3.30;;;1.90;;
1410;SDS011;700;51.906;8.404;2022-09-02T05:46:36;3.77;;;1.90;;
1410;SDS011;700;51.906;8.404;2022-09-02T05:51:44;4.83;;;2.17;;
1410;SDS011;700;51.906;8.404;2022-09-02T05:56:47;6.40;;;2.00;;
1410;SDS011;700;51.906;8.404;2022-09-02T06:01:50;3.27;;;2.20;;
1410;SDS011;700;51.906;8.404;2022-09-02T06:06:51;3.03;;;1.73;;
1410;SDS011;700;51.906;8.404;2022-09-02T06:11:54;3.87;;;1.50;;
1410;SDS011;700;51.906;8.404;2022-09-02T06:16:56;4.67;;;2.00;;
1410;SDS011;700;51.906;8.404;2022-09-02T06:22:00;3.50;;;1.97;;
1410;SDS011;700;51.906;8.404;2022-09-02T06:27:04;3.85;;;2.05;;
1410;SDS011;700;51.906;8.404;2022-09-02T06:32:07;3.30;;;1.90;;
1410;SDS011;700;51.906;8.404;2022-09-02T06:37:10;4.17;;;1.80;;
1410;SDS011;700;51.906;8.404;2022-09-02T06:42:11;2.70;;;1.83;;
1410;SDS011;700;51.906;8.404;2022-09-02T06:47:16;3.23;;;1.70;;
1410;SDS011;700;51.906;8.404;2022-09-02T06:52:17;4.93;;;1.90;;
1410;SDS011;700;51.906;8.404;2022-09-02T06:57:17;4.60;;;1.73;;
1410;SDS011;700;51.906;8.404;2022-09-02T07:02:18;5.87;;;3.03;;
1410;SDS011;700;51.906;8.404;2022-09-02T07:07:21;3.43;;;1.90;;
1410;SDS011;700;51.906;8.404;2022-09-02T07:12:24;6.20;;;1.90;;
1410;SDS011;700;51.906;8.404;2022-09-02T07:17:27;2.50;;;1.50;;
1410;SDS011;700;51.906;8.404;2022-09-02T07:22:28;4.20;;;1.83;;
1410;SDS011;700;51.906;8.404;2022-09-02T07:27:33;5.50;;;1.70;;
1410;SDS011;700;51.906;8.404;2022-09-02T07:32:34;6.13;;;1.40;;
1410;SDS011;700;51.906;8.404;2022-09-02T07:37:35;3.00;;;1.53;;
1410;SDS011;700;51.906;8.404;2022-09-02T07:42:38;2.93;;;1.60;;
1410;SDS011;700;51.906;8.404;2022-09-02T07:47:41;4.20;;;1.70;;
1410;SDS011;700;51.906;8.404;2022-09-02T07:52:42;4.17;;;1.60;;
1410;SDS011;700;51.906;8.404;2022-09-02T07:57:42;3.10;;;1.57;;
1410;SDS011;700;51.906;8.404;2022-09-02T08:02:43;2.77;;;1.63;;
1410;SDS011;700;51.906;8.404;2022-09-02T08:07:44;3.90;;;1.50;;
1410;SDS011;700;51.906;8.404;2022-09-02T08:12:45;6.47;;;1.60;;
1410;SDS011;700;51.906;8.404;2022-09-02T08:17:48;2.40;;;1.50;;
1410;SDS011;700;51.906;8.404;2022-09-02T08:22:49;4.80;;;1.57;;
1410;SDS011;700;51.906;8.404;2022-09-02T08:27:52;6.10;;;1.63;;
1410;SDS011;700;51.906;8.404;2022-09-02T08:32:53;5.00;;;1.70;;
1410;SDS011;700;51.906;8.404;2022-09-02T08:37:56;4.10;;;1.70;;
1410;SDS011;700;51.906;8.404;2022-09-02T08:43:04;3.47;;;1.80;;
1410;SDS011;700;51.906;8.404;2022-09-02T08:48:39;4.23;;;1.50;;
1410;SDS011;700;51.906;8.404;2022-09-02T08:54:09;7.20;;;1.90;;
1410;SDS011;700;51.906;8.404;2022-09-02T08:59:29;3.33;;;1.77;;
1410;SDS011;700;51.906;8.404;2022-09-02T09:14:48;6.13;;;1.73;;
1410;SDS011;700;51.906;8.404;2022-09-02T09:19:58;2.73;;;1.50;;
1410;SDS011;700;51.906;8.404;2022-09-02T09:25:10;2.20;;;1.40;;
1410;SDS011;700;51.906;8.404;2022-09-02T09:30:13;3.63;;;1.40;;
1410;SDS011;700;51.906;8.404;2022-09-02T09:35:19;3.10;;;1.40;;
1410;SDS011;700;51.906;8.404;2022-09-02T09:50:33;3.70;;;1.47;;
1410;SDS011;700;51.906;8.404;2022-09-02T09:55:34;4.20;;;1.60;;
1410;SDS011;700;51.906;8.404;2022-09-02T10:00:50;3.43;;;1.60;;
1410;SDS011;700;51.906;8.404;2022-09-02T10:05:58;3.27;;;1.23;;
1410;SDS011;700;51.906;8.404;2022-09-02T10:11:26;2.10;;;1.60;;
1410;SDS011;700;51.906;8.404;2022-09-02T10:16:36;7.20;;;1.50;;
1410;SDS011;700;51.906;8.404;2022-09-02T10:27:23;2.50;;;1.50;;
1410;SDS011;700;51.906;8.404;2022-09-02T10:38:44;1.73;;;1.30;;
1410;SDS011;700;51.906;8.404;2022-09-02T10:59:31;3.93;;;1.23;;
1410;SDS011;700;51.906;8.404;2022-09-02T11:05:06;3.17;;;1.80;;
1410;SDS011;700;51.906;8.404;2022-09-02T11:10:16;5.40;;;1.40;;
1410;SDS011;700;51.906;8.404;2022-09-02T11:15:32;2.90;;;1.53;;
1410;SDS011;700;51.906;8.404;2022-09-02T11:20:45;4.13;;;1.30;;
1410;SDS011;700;51.906;8.404;2022-09-02T11:36:28;3.13;;;1.40;;
1410;SDS011;700;51.906;8.404;2022-09-02T11:52:31;4.43;;;1.70;;
1410;SDS011;700;51.906;8.404;2022-09-02T11:57:55;3.67;;;1.80;;
1410;SDS011;700;51.906;8.404;2022-09-02T12:13:43;2.20;;;1.50;;
1410;SDS011;700;51.906;8.404;2022-09-02T12:19:38;2.40;;;1.43;;
1410;SDS011;700;51.906;8.404;2022-09-02T12:24:10;3.60;;;1.47;;
1410;SDS011;700;51.906;8.404;2022-09-02T12:49:45;4.80;;;1.47;;
1410;SDS011;700;51.906;8.404;2022-09-02T12:55:01;5.63;;;1.37;;
1410;SDS011;700;51.906;8.404;2022-09-02T13:00:12;4.40;;;1.47;;
1410;SDS011;700;51.906;8.404;2022-09-02T13:05:29;3.17;;;1.30;;
1410;SDS011;700;51.906;8.404;2022-09-02T13:22:36;3.50;;;1.23;;
1410;SDS011;700;51.906;8.404;2022-09-02T13:33:29;6.03;;;1.87;;
1410;SDS011;700;51.906;8.404;2022-09-02T13:38:34;3.47;;;1.40;;
1410;SDS011;700;51.906;8.404;2022-09-02T13:43:35;3.17;;;1.40;;
1410;SDS011;700;51.906;8.404;2022-09-02T13:48:36;4.50;;;1.50;;
1410;SDS011;700;51.906;8.404;2022-09-02T13:53:42;3.90;;;1.30;;
1410;SDS011;700;51.906;8.404;2022-09-02T13:58:50;5.83;;;1.83;;
1410;SDS011;700;51.906;8.404;2022-09-02T14:03:55;4.30;;;1.30;;
1410;SDS011;700;51.906;8.404;2022-09-02T14:08:59;2.50;;;1.40;;
1410;SDS011;700;51.906;8.404;2022-09-02T14:14:01;3.13;;;1.30;;
1410;SDS011;700;51.906;8.404;2022-09-02T14:24:28;3.43;;;1.80;;
1410;SDS011;700;51.906;8.404;2022-09-02T14:29:41;4.80;;;1.40;;
1410;SDS011;700;51.906;8.404;2022-09-02T14:34:44;3.63;;;1.20;;
1410;SDS011;700;51.906;8.404;2022-09-02T14:44:52;3.63;;;1.40;;
1410;SDS011;700;51.906;8.404;2022-09-02T14:49:55;2.93;;;1.40;;
1410;SDS011;700;51.906;8.404;2022-09-02T14:54:56;3.40;;;1.63;;
1410;SDS011;700;51.906;8.404;2022-09-02T15:00:14;4.83;;;1.50;;
1410;SDS011;700;51.906;8.404;2022-09-02T15:05:17;4.37;;;1.60;;
1410;SDS011;700;51.906;8.404;2022-09-02T15:10:23;3.13;;;1.50;;
1410;SDS011;700;51.906;8.404;2022-09-02T15:15:26;3.10;;;1.70;;
1410;SDS011;700;51.906;8.404;2022-09-02T15:20:27;3.00;;;1.50;;
1410;SDS011;700;51.906;8.404;2022-09-02T15:25:28;7.00;;;1.80;;
1410;SDS011;700;51.906;8.404;2022-09-02T15:30:29;4.37;;;1.40;;
1410;SDS011;700;51.906;8.404;2022-09-02T15:35:32;6.00;;;1.60;;
1410;SDS011;700;51.906;8.404;2022-09-02T15:40:33;3.07;;;1.37;;
1410;SDS011;700;51.906;8.404;2022-09-02T15:45:43;2.70;;;1.40;;
1410;SDS011;700;51.906;8.404;2022-09-02T15:50:47;5.43;;;2.13;;
1410;SDS011;700;51.906;8.404;2022-09-02T15:55:48;3.30;;;1.37;;
1410;SDS011;700;51.906;8.404;2022-09-02T16:00:49;2.57;;;1.40;;
1410;SDS011;700;51.906;8.404;2022-09-02T16:05:52;4.50;;;2.07;;
1410;SDS011;700;51.906;8.404;2022-09-02T16:11:05;4.83;;;1.40;;
1410;SDS011;700;51.906;8.404;2022-09-02T16:16:07;3.60;;;1.50;;
1410;SDS011;700;51.906;8.404;2022-09-02T16:21:10;5.57;;;1.87;;
1410;SDS011;700;51.906;8.404;2022-09-02T16:31:26;3.90;;;1.43;;
1410;SDS011;700;51.906;8.404;2022-09-02T16:36:31;2.30;;;1.50;;
1410;SDS011;700;51.906;8.404;2022-09-02T16:41:36;3.87;;;1.10;;
1410;SDS011;700;51.906;8.404;2022-09-02T16:46:41;3.27;;;1.60;;
1410;SDS011;700;51.906;8.404;2022-09-02T16:51:45;5.07;;;1.67;;
1410;SDS011;700;51.906;8.404;2022-09-02T16:56:50;3.57;;;1.53;;
1410;SDS011;700;51.906;8.404;2022-09-02T17:01:51;3.47;;;1.50;;
1410;SDS011;700;51.906;8.404;2022-09-02T17:06:51;4.10;;;1.50;;
1410;SDS011;700;51.906;8.404;2022-09-02T17:11:54;3.10;;;1.60;;
1410;SDS011;700;51.906;8.404;2022-09-02T17:16:57;3.57;;;2.00;;
1410;SDS011;700;51.906;8.404;2022-09-02T17:21:58;3.20;;;1.37;;
1410;SDS011;700;51.906;8.404;2022-09-02T17:27:01;3.10;;;1.60;;
1410;SDS011;700;51.906;8.404;2022-09-02T17:32:04;3.90;;;1.40;;
1410;SDS011;700;51.906;8.404;2022-09-02T17:37:08;2.53;;;1.63;;
1410;SDS011;700;51.906;8.404;2022-09-02T17:42:09;2.67;;;1.63;;
1410;SDS011;700;51.906;8.404;2022-09-02T17:47:12;5.40;;;1.60;;
1410;SDS011;700;51.906;8.404;2022-09-02T17:52:22;4.20;;;1.50;;
1410;SDS011;700;51.906;8.404;2022-09-02T18:08:17;4.20;;;1.90;;
1410;SDS011;700;51.906;8.404;2022-09-02T18:18:44;6.60;;;2.20;;
1410;SDS011;700;51.906;8.404;2022-09-02T18:39:59;4.50;;;2.53;;
1410;SDS011;700;51.906;8.404;2022-09-02T18:45:14;5.40;;;2.00;;
1410;SDS011;700;51.906;8.404;2022-09-02T18:50:24;4.37;;;2.10;;
1410;SDS011;700;51.906;8.404;2022-09-02T18:55:33;5.20;;;1.80;;
1410;SDS011;700;51.906;8.404;2022-09-02T19:00:45;3.47;;;1.80;;
1410;SDS011;700;51.906;8.404;2022-09-02T19:05:52;5.37;;;2.83;;
1410;SDS011;700;51.906;8.404;2022-09-02T19:16:07;5.10;;;2.23;;
1410;SDS011;700;51.906;8.404;2022-09-02T19:21:08;3.60;;;2.00;;
1410;SDS011;700;51.906;8.404;2022-09-02T19:26:15;6.17;;;2.50;;
1410;SDS011;700;51.906;8.404;2022-09-02T19:31:18;4.60;;;2.23;;
1410;SDS011;700;51.906;8.404;2022-09-02T19:36:20;4.80;;;2.00;;
1410;SDS011;700;51.906;8.404;2022-09-02T19:41:26;5.97;;;1.90;;
1410;SDS011;700;51.906;8.404;2022-09-02T19:46:29;4.70;;;1.97;;
1410;SDS011;700;51.906;8.404;2022-09-02T19:51:32;3.17;;;1.50;;
1410;SDS011;700;51.906;8.404;2022-09-02T19:56:36;4.60;;;1.90;;
1410;SDS011;700;51.906;8.404;2022-09-02T20:01:36;4.03;;;1.73;;
1410;SDS011;700;51.906;8.404;2022-09-02T20:06:37;3.30;;;1.60;;
1410;SDS011;700;51.906;8.404;2022-09-02T20:11:38;2.90;;;1.63;;
1410;SDS011;700;51.906;8.404;2022-09-02T20:16:39;3.30;;;1.57;;
1410;SDS011;700;51.906;8.404;2022-09-02T20:21:43;3.17;;;1.30;;
1410;SDS011;700;51.906;8.404;2022-09-02T20:43:20;3.67;;;1.20;;
1410;SDS011;700;51.906;8.404;2022-09-02T21:04:36;3.00;;;1.30;;
1410;SDS011;700;51.906;8.404;2022-09-02T21:09:53;2.60;;;1.43;;
1410;SDS011;700;51.906;8.404;2022-09-02T21:15:30;3.13;;;1.10;;
1410;SDS011;700;51.906;8.404;2022-09-02T21:31:24;4.30;;;1.77;;
1410;SDS011;700;51.906;8.404;2022-09-02T21:36:28;2.80;;;1.30;;
1410;SDS011;700;51.906;8.404;2022-09-02T21:41:30;1.90;;;1.00;;
1410;SDS011;700;51.906;8.404;2022-09-02T21:46:51;2.43;;;1.10;;
1410;SDS011;700;51.906;8.404;2022-09-02T21:57:27;5.17;;;1.20;;
1410;SDS011;700;51.906;8.404;2022-09-02T22:07:51;5.13;;;1.30;;
1410;SDS011;700;51.906;8.404;2022-09-02T22:13:01;2.67;;;0.90;;
1410;SDS011;700;51.906;8.404;2022-09-02T22:18:15;3.70;;;1.10;;
1410;SDS011;700;51.906;8.404;2022-09-02T22:23:27;2.57;;;1.07;;
1410;SDS011;700;51.906;8.404;2022-09-02T22:28:32;3.47;;;1.40;;
1410;SDS011;700;51.906;8.404;2022-09-02T22:33:38;2.40;;;1.00;;
1410;SDS011;700;51.906;8.404;2022-09-02T22:38:47;6.50;;;1.20;;
1410;SDS011;700;51.906;8.404;2022-09-02T22:43:54;2.20;;;1.30;;
1410;SDS011;700;51.906;8.404;2022-09-02T22:49:04;2.27;;;1.10;;
1410;SDS011;700;51.906;8.404;2022-09-02T22:54:29;3.03;;;1.10;;
1410;SDS011;700;51.906;8.404;2022-09-02T23:10:51;2.50;;;1.20;;
1410;SDS011;700;51.906;8.404;2022-09-02T23:42:50;4.70;;;1.30;;
1410;SDS011;700;51.906;8.404;2022-09-02T23:53:01;2.77;;;1.00;;
1410;SDS011;700;51.906;8.404;2022-09-02T23:58:26;3.10;;;1.83;;
